sensor_id;sensor_type;location;lat;lon;timestamp;pressure;altitude;pressure_sealevel;temperature;humidity
24996;BME280;13016;52.162;21.034;2022-12-18T00:00:45;101782.79;;;1.30;55.95
24996;BME280;13016;52.162;21.034;2022-12-18T00:03:10;101787.30;;;1.40;55.63
24996;BME280;13016;52.162;21.034;2022-12-18T00:05:35;101786.09;;;1.32;55.18
24996;BME280;13016;52.162;21.034;2022-12-18T00:08:01;101787.31;;;1.18;55.37
24996;BME280;13016;52.162;21.034;2022-12-18T00:10:27;101787.66;;;1.07;55.44
24996;BME280;13016;52.162;21.034;2022-12-18T00:12:53;101793.91;;;0.98;55.63
24996;BME280;13016;52.162;21.034;2022-12-18T00:15:18;101795.66;;;0.94;55.92
24996;BME280;13016;52.162;21.034;2022-12-18T00:17:44;101798.25;;;0.92;56.11
24996;BME280;13016;52.162;21.034;2022-12-18T00:20:09;101798.94;;;0.91;56.20
24996;BME280;13016;52.162;21.034;2022-12-18T00:22:35;101803.30;;;1.04;56.12
24996;BME280;13016;52.162;21.034;2022-12-18T00:25:00;101804.69;;;1.07;56.09
24996;BME280;13016;52.162;21.034;2022-12-18T00:27:25;101806.42;;;1.01;56.18
24996;BME280;13016;52.162;21.034;2022-12-18T00:29:50;101808.35;;;1.16;56.28
24996;BME280;13016;52.162;21.034;2022-12-18T00:32:16;101812.16;;;1.31;55.89
24996;BME280;13016;52.162;21.034;2022-12-18T00:34:41;101813.04;;;1.34;55.86
24996;BME280;13016;52.162;21.034;2022-12-18T00:37:06;101817.91;;;1.32;55.80
24996;BME280;13016;52.162;21.034;2022-12-18T00:39:31;101820.52;;;1.32;55.76
24996;BME280;13016;52.162;21.034;2022-12-18T00:41:57;101820.52;;;1.33;55.93
24996;BME280;13016;52.162;21.034;2022-12-18T00:44:22;101821.20;;;1.47;55.90
24996;BME280;13016;52.162;21.034;2022-12-18T00:46:47;101821.02;;;1.42;55.76
24996;BME280;13016;52.162;21.034;2022-12-18T00:49:14;101824.52;;;1.38;55.79
24996;BME280;13016;52.162;21.034;2022-12-18T00:51:40;101829.73;;;1.33;55.80
24996;BME280;13016;52.162;21.034;2022-12-18T00:54:05;101837.38;;;1.40;55.93
24996;BME280;13016;52.162;21.034;2022-12-18T00:56:31;101832.17;;;1.30;56.11
24996;BME280;13016;52.162;21.034;2022-12-18T00:58:56;101834.26;;;1.31;56.17
24996;BME280;13016;52.162;21.034;2022-12-18T01:01:21;101840.86;;;1.42;56.34
24996;BME280;13016;52.162;21.034;2022-12-18T01:03:47;101843.45;;;1.54;56.02
24996;BME280;13016;52.162;21.034;2022-12-18T01:06:14;101848.16;;;1.41;55.70
24996;BME280;13016;52.162;21.034;2022-12-18T01:08:40;101840.67;;;1.15;56.09
24996;BME280;13016;52.162;21.034;2022-12-18T01:11:16;101847.45;;;1.19;56.38
24996;BME280;13016;52.162;21.034;2022-12-18T01:13:42;101855.80;;;1.18;56.27
24996;BME280;13016;52.162;21.034;2022-12-18T01:16:07;101853.19;;;1.09;56.66
24996;BME280;13016;52.162;21.034;2022-12-18T01:18:33;101859.10;;;1.23;56.58
24996;BME280;13016;52.162;21.034;2022-12-18T01:20:58;101863.28;;;1.38;56.31
24996;BME280;13016;52.162;21.034;2022-12-18T01:23:23;101863.29;;;1.40;55.95
24996;BME280;13016;52.162;21.034;2022-12-18T01:25:49;101866.06;;;1.34;56.10
24996;BME280;13016;52.162;21.034;2022-12-18T01:28:14;101869.54;;;1.45;56.08
24996;BME280;13016;52.162;21.034;2022-12-18T01:30:39;101867.98;;;1.40;55.75
24996;BME280;13016;52.162;21.034;2022-12-18T01:33:05;101872.84;;;1.43;55.74
24996;BME280;13016;52.162;21.034;2022-12-18T01:35:30;101881.89;;;1.48;55.75
24996;BME280;13016;52.162;21.034;2022-12-18T01:37:56;101883.98;;;1.55;55.76
24996;BME280;13016;52.162;21.034;2022-12-18T01:40:21;101887.27;;;1.68;55.71
24996;BME280;13016;52.162;21.034;2022-12-18T01:42:53;101890.05;;;1.72;55.43
24996;BME280;13016;52.162;21.034;2022-12-18T01:45:22;101897.19;;;1.76;55.33
24996;BME280;13016;52.162;21.034;2022-12-18T01:47:54;101896.33;;;1.56;54.98
24996;BME280;13016;52.162;21.034;2022-12-18T01:50:32;101895.98;;;1.41;55.39
24996;BME280;13016;52.162;21.034;2022-12-18T01:55:33;101900.50;;;1.50;55.46
24996;BME280;13016;52.162;21.034;2022-12-18T01:58:00;101901.55;;;1.51;55.06
24996;BME280;13016;52.162;21.034;2022-12-18T02:00:26;101903.11;;;1.44;55.16
24996;BME280;13016;52.162;21.034;2022-12-18T02:02:54;101907.63;;;1.41;55.22
24996;BME280;13016;52.162;21.034;2022-12-18T02:13:32;101926.05;;;1.44;55.33
24996;BME280;13016;52.162;21.034;2022-12-18T02:16:29;101932.66;;;1.43;55.20
24996;BME280;13016;52.162;21.034;2022-12-18T02:19:01;101929.66;;;1.17;55.40
24996;BME280;13016;52.162;21.034;2022-12-18T02:21:44;101937.16;;;1.27;55.85
24996;BME280;13016;52.162;21.034;2022-12-18T02:26:55;101947.97;;;1.40;55.21
24996;BME280;13016;52.162;21.034;2022-12-18T02:29:49;101950.93;;;1.45;55.20
24996;BME280;13016;52.162;21.034;2022-12-18T02:32:22;101948.68;;;1.53;55.08
24996;BME280;13016;52.162;21.034;2022-12-18T02:34:50;101955.46;;;1.56;54.96
24996;BME280;13016;52.162;21.034;2022-12-18T02:37:18;101954.95;;;1.69;54.88
24996;BME280;13016;52.162;21.034;2022-12-18T02:39:47;101958.61;;;1.74;54.64
24996;BME280;13016;52.162;21.034;2022-12-18T02:42:13;101963.83;;;1.75;54.69
24996;BME280;13016;52.162;21.034;2022-12-18T02:44:47;101970.07;;;1.52;54.80
24996;BME280;13016;52.162;21.034;2022-12-18T02:47:15;101974.77;;;1.58;54.99
24996;BME280;13016;52.162;21.034;2022-12-18T02:55:13;101978.42;;;1.64;54.66
24996;BME280;13016;52.162;21.034;2022-12-18T03:00:24;101985.22;;;1.81;54.52
24996;BME280;13016;52.162;21.034;2022-12-18T03:05:31;101989.58;;;1.88;54.10
24996;BME280;13016;52.162;21.034;2022-12-18T03:08:03;101997.73;;;1.57;54.21
24996;BME280;13016;52.162;21.034;2022-12-18T03:10:32;102002.43;;;1.60;54.46
24996;BME280;13016;52.162;21.034;2022-12-18T03:13:04;102007.99;;;1.60;54.35
24996;BME280;13016;52.162;21.034;2022-12-18T03:15:44;102010.24;;;1.53;54.62
24996;BME280;13016;52.162;21.034;2022-12-18T03:18:14;102011.11;;;1.52;54.62
24996;BME280;13016;52.162;21.034;2022-12-18T03:20:42;102016.34;;;1.60;54.61
24996;BME280;13016;52.162;21.034;2022-12-18T03:23:13;102015.83;;;1.70;54.45
24996;BME280;13016;52.162;21.034;2022-12-18T03:25:42;102022.11;;;1.76;54.41
24996;BME280;13016;52.162;21.034;2022-12-18T03:28:12;102022.61;;;1.66;54.17
24996;BME280;13016;52.162;21.034;2022-12-18T03:30:41;102026.89;;;1.37;54.54
24996;BME280;13016;52.162;21.034;2022-12-18T03:33:28;102031.39;;;1.27;54.87
24996;BME280;13016;52.162;21.034;2022-12-18T03:35:55;102037.28;;;1.23;54.93
24996;BME280;13016;52.162;21.034;2022-12-18T03:38:21;102047.59;;;1.34;55.05
24996;BME280;13016;52.162;21.034;2022-12-18T03:43:20;102048.46;;;1.38;54.64
24996;BME280;13016;52.162;21.034;2022-12-18T03:45:54;102046.03;;;1.41;54.55
24996;BME280;13016;52.162;21.034;2022-12-18T03:48:39;102048.13;;;1.49;54.59
24996;BME280;13016;52.162;21.034;2022-12-18T03:51:16;102049.71;;;1.51;54.27
24996;BME280;13016;52.162;21.034;2022-12-18T03:53:48;102046.25;;;1.60;54.27
24996;BME280;13016;52.162;21.034;2022-12-18T03:56:15;102046.96;;;1.60;53.93
24996;BME280;13016;52.162;21.034;2022-12-18T03:58:42;102055.42;;;1.39;54.07
24996;BME280;13016;52.162;21.034;2022-12-18T04:01:10;102063.26;;;1.43;54.26
24996;BME280;13016;52.162;21.034;2022-12-18T04:03:37;102067.30;;;1.53;54.21
24996;BME280;13016;52.162;21.034;2022-12-18T04:06:05;102066.63;;;1.67;53.96
24996;BME280;13016;52.162;21.034;2022-12-18T04:08:31;102072.20;;;1.64;53.67
24996;BME280;13016;52.162;21.034;2022-12-18T04:10:57;102076.54;;;1.62;53.64
24996;BME280;13016;52.162;21.034;2022-12-18T04:13:24;102080.73;;;1.69;53.71
24996;BME280;13016;52.162;21.034;2022-12-18T04:15:49;102085.23;;;1.67;53.38
24996;BME280;13016;52.162;21.034;2022-12-18T04:18:15;102081.52;;;1.43;53.44
24996;BME280;13016;52.162;21.034;2022-12-18T04:20:40;102088.59;;;1.28;54.18
24996;BME280;13016;52.162;21.034;2022-12-18T04:23:05;102091.09;;;1.49;54.16
24996;BME280;13016;52.162;21.034;2022-12-18T04:25:30;102086.55;;;1.42;53.65
24996;BME280;13016;52.162;21.034;2022-12-18T04:27:56;102097.82;;;1.33;53.78
24996;BME280;13016;52.162;21.034;2022-12-18T04:30:21;102097.66;;;1.36;53.97
24996;BME280;13016;52.162;21.034;2022-12-18T04:32:46;102099.98;;;1.48;54.07
24996;BME280;13016;52.162;21.034;2022-12-18T04:35:11;102103.95;;;1.44;53.67
24996;BME280;13016;52.162;21.034;2022-12-18T04:37:37;102108.80;;;1.40;53.79
24996;BME280;13016;52.162;21.034;2022-12-18T04:40:02;102111.98;;;1.50;53.87
24996;BME280;13016;52.162;21.034;2022-12-18T04:42:28;102116.16;;;1.53;53.94
24996;BME280;13016;52.162;21.034;2022-12-18T04:44:54;102114.06;;;1.49;53.78
24996;BME280;13016;52.162;21.034;2022-12-18T04:47:19;102118.89;;;1.39;53.85
24996;BME280;13016;52.162;21.034;2022-12-18T04:49:44;102122.80;;;1.23;53.95
24996;BME280;13016;52.162;21.034;2022-12-18T04:52:09;102129.14;;;1.03;54.31
24996;BME280;13016;52.162;21.034;2022-12-18T04:54:35;102129.99;;;1.01;54.40
24996;BME280;13016;52.162;21.034;2022-12-18T04:57:00;102125.74;;;0.88;54.61
24996;BME280;13016;52.162;21.034;2022-12-18T04:59:25;102130.76;;;0.84;54.93
24996;BME280;13016;52.162;21.034;2022-12-18T05:01:50;102131.52;;;0.93;54.81
24996;BME280;13016;52.162;21.034;2022-12-18T05:04:16;102136.23;;;0.97;54.68
24996;BME280;13016;52.162;21.034;2022-12-18T05:06:41;102138.02;;;0.81;54.86
24996;BME280;13016;52.162;21.034;2022-12-18T05:09:06;102146.30;;;0.72;55.11
24996;BME280;13016;52.162;21.034;2022-12-18T05:11:31;102154.52;;;0.77;55.18
24996;BME280;13016;52.162;21.034;2022-12-18T05:13:56;102158.76;;;0.88;55.05
24996;BME280;13016;52.162;21.034;2022-12-18T05:16:22;102164.80;;;1.06;55.04
24996;BME280;13016;52.162;21.034;2022-12-18T05:18:47;102168.33;;;1.17;54.66
24996;BME280;13016;52.162;21.034;2022-12-18T05:21:12;102173.56;;;1.21;54.26
24996;BME280;13016;52.162;21.034;2022-12-18T05:23:38;102179.99;;;1.20;54.17
24996;BME280;13016;52.162;21.034;2022-12-18T05:26:05;102177.02;;;1.15;53.83
24996;BME280;13016;52.162;21.034;2022-12-18T05:28:32;102180.42;;;1.06;54.15
24996;BME280;13016;52.162;21.034;2022-12-18T05:31:00;102182.23;;;0.89;54.22
24996;BME280;13016;52.162;21.034;2022-12-18T05:33:28;102189.10;;;0.80;54.98
24996;BME280;13016;52.162;21.034;2022-12-18T05:35:56;102185.02;;;0.91;54.91
24996;BME280;13016;52.162;21.034;2022-12-18T05:38:23;102191.77;;;0.88;54.88
24996;BME280;13016;52.162;21.034;2022-12-18T05:40:49;102195.89;;;0.81;55.04
24996;BME280;13016;52.162;21.034;2022-12-18T05:43:15;102203.84;;;0.77;55.34
24996;BME280;13016;52.162;21.034;2022-12-18T05:45:41;102204.61;;;0.65;55.62
24996;BME280;13016;52.162;21.034;2022-12-18T05:48:07;102206.34;;;0.45;56.42
24996;BME280;13016;52.162;21.034;2022-12-18T05:50:40;102207.39;;;0.46;56.86
24996;BME280;13016;52.162;21.034;2022-12-18T05:53:06;102205.39;;;0.55;57.13
24996;BME280;13016;52.162;21.034;2022-12-18T05:55:35;102203.89;;;0.63;56.91
24996;BME280;13016;52.162;21.034;2022-12-18T05:58:02;102210.41;;;0.53;57.44
24996;BME280;13016;52.162;21.034;2022-12-18T06:00:29;102205.48;;;0.47;57.61
24996;BME280;13016;52.162;21.034;2022-12-18T06:02:54;102212.79;;;0.48;57.92
24996;BME280;13016;52.162;21.034;2022-12-18T06:05:19;102214.09;;;0.58;57.90
24996;BME280;13016;52.162;21.034;2022-12-18T06:07:45;102219.17;;;0.46;57.92
24996;BME280;13016;52.162;21.034;2022-12-18T06:10:10;102230.11;;;0.43;58.23
24996;BME280;13016;52.162;21.034;2022-12-18T06:12:35;102243.16;;;0.46;58.30
24996;BME280;13016;52.162;21.034;2022-12-18T06:15:01;102249.98;;;0.49;58.32
24996;BME280;13016;52.162;21.034;2022-12-18T06:17:30;102250.21;;;0.40;58.49
24996;BME280;13016;52.162;21.034;2022-12-18T06:19:56;102249.56;;;0.28;58.87
24996;BME280;13016;52.162;21.034;2022-12-18T06:22:21;102257.70;;;0.43;58.85
24996;BME280;13016;52.162;21.034;2022-12-18T06:24:46;102260.27;;;0.56;58.75
24996;BME280;13016;52.162;21.034;2022-12-18T06:27:12;102265.30;;;0.55;58.59
24996;BME280;13016;52.162;21.034;2022-12-18T06:29:37;102269.69;;;0.59;58.72
24996;BME280;13016;52.162;21.034;2022-12-18T06:32:02;102275.61;;;0.80;58.67
24996;BME280;13016;52.162;21.034;2022-12-18T06:34:31;102278.94;;;0.82;58.19
24996;BME280;13016;52.162;21.034;2022-12-18T06:36:56;102284.83;;;0.80;58.21
24996;BME280;13016;52.162;21.034;2022-12-18T06:39:21;102293.46;;;0.93;58.25
24996;BME280;13016;52.162;21.034;2022-12-18T06:41:46;102296.16;;;1.04;58.16
24996;BME280;13016;52.162;21.034;2022-12-18T06:44:12;102300.28;;;1.00;57.72
24996;BME280;13016;52.162;21.034;2022-12-18T06:46:37;102309.20;;;1.04;57.79
24996;BME280;13016;52.162;21.034;2022-12-18T06:49:02;102307.56;;;0.97;57.49
24996;BME280;13016;52.162;21.034;2022-12-18T06:51:27;102308.16;;;0.87;57.63
24996;BME280;13016;52.162;21.034;2022-12-18T06:53:52;102317.73;;;0.86;57.84
24996;BME280;13016;52.162;21.034;2022-12-18T06:56:18;102320.84;;;0.85;57.83
24996;BME280;13016;52.162;21.034;2022-12-18T06:58:43;102324.23;;;0.95;57.67
24996;BME280;13016;52.162;21.034;2022-12-18T07:01:10;102329.77;;;0.93;57.59
24996;BME280;13016;52.162;21.034;2022-12-18T07:03:37;102331.16;;;0.92;57.46
24996;BME280;13016;52.162;21.034;2022-12-18T07:06:03;102337.55;;;0.89;57.59
24996;BME280;13016;52.162;21.034;2022-12-18T07:08:29;102337.11;;;0.98;57.55
24996;BME280;13016;52.162;21.034;2022-12-18T07:10:54;102344.08;;;0.99;57.52
24996;BME280;13016;52.162;21.034;2022-12-18T07:13:20;102348.00;;;1.09;57.65
24996;BME280;13016;52.162;21.034;2022-12-18T07:15:45;102350.12;;;1.13;57.33
24996;BME280;13016;52.162;21.034;2022-12-18T07:18:10;102354.84;;;1.15;57.36
24996;BME280;13016;52.162;21.034;2022-12-18T07:20:36;102358.42;;;1.29;57.39
24996;BME280;13016;52.162;21.034;2022-12-18T07:23:02;102360.84;;;1.27;57.01
24996;BME280;13016;52.162;21.034;2022-12-18T07:25:28;102361.46;;;1.17;56.99
24996;BME280;13016;52.162;21.034;2022-12-18T07:27:54;102366.19;;;1.21;57.20
24996;BME280;13016;52.162;21.034;2022-12-18T07:30:19;102371.95;;;1.25;57.16
24996;BME280;13016;52.162;21.034;2022-12-18T07:32:45;102367.94;;;1.22;57.08
24996;BME280;13016;52.162;21.034;2022-12-18T07:35:10;102369.53;;;1.26;57.21
24996;BME280;13016;52.162;21.034;2022-12-18T07:37:35;102365.60;;;1.34;56.94
24996;BME280;13016;52.162;21.034;2022-12-18T07:40:00;102371.33;;;1.32;56.85
24996;BME280;13016;52.162;21.034;2022-12-18T07:42:26;102377.46;;;1.38;56.74
24996;BME280;13016;52.162;21.034;2022-12-18T07:44:51;102380.08;;;1.38;56.54
24996;BME280;13016;52.162;21.034;2022-12-18T07:47:16;102386.02;;;1.43;56.76
24996;BME280;13016;52.162;21.034;2022-12-18T07:49:41;102389.08;;;1.53;56.63
24996;BME280;13016;52.162;21.034;2022-12-18T07:52:07;102389.86;;;1.44;56.53
24996;BME280;13016;52.162;21.034;2022-12-18T07:54:32;102393.52;;;1.44;56.74
24996;BME280;13016;52.162;21.034;2022-12-18T07:56:57;102401.42;;;1.53;56.71
24996;BME280;13016;52.162;21.034;2022-12-18T07:59:23;102402.17;;;1.60;56.56
24996;BME280;13016;52.162;21.034;2022-12-18T08:01:48;102408.13;;;1.65;56.57
24996;BME280;13016;52.162;21.034;2022-12-18T08:04:13;102416.36;;;1.73;56.62
24996;BME280;13016;52.162;21.034;2022-12-18T08:06:38;102421.61;;;1.76;56.42
24996;BME280;13016;52.162;21.034;2022-12-18T08:09:04;102426.00;;;1.81;56.27
24996;BME280;13016;52.162;21.034;2022-12-18T08:11:29;102426.70;;;1.81;56.15
24996;BME280;13016;52.162;21.034;2022-12-18T08:13:55;102431.79;;;1.88;56.23
24996;BME280;13016;52.162;21.034;2022-12-18T08:16:21;102433.27;;;2.00;55.97
24996;BME280;13016;52.162;21.034;2022-12-18T08:18:47;102433.17;;;1.87;55.67
24996;BME280;13016;52.162;21.034;2022-12-18T08:21:15;102439.84;;;1.92;55.66
24996;BME280;13016;52.162;21.034;2022-12-18T08:23:42;102442.13;;;2.00;55.46
24996;BME280;13016;52.162;21.034;2022-12-18T08:26:07;102445.31;;;2.04;55.13
24996;BME280;13016;52.162;21.034;2022-12-18T08:28:33;102453.20;;;1.91;54.98
24996;BME280;13016;52.162;21.034;2022-12-18T08:30:59;102455.70;;;1.97;55.14
24996;BME280;13016;52.162;21.034;2022-12-18T08:33:25;102463.45;;;1.87;54.93
24996;BME280;13016;52.162;21.034;2022-12-18T08:35:50;102464.45;;;1.82;55.37
24996;BME280;13016;52.162;21.034;2022-12-18T08:38:16;102466.08;;;1.90;55.23
24996;BME280;13016;52.162;21.034;2022-12-18T08:40:41;102468.33;;;1.86;55.47
24996;BME280;13016;52.162;21.034;2022-12-18T08:43:09;102468.59;;;1.76;55.17
24996;BME280;13016;52.162;21.034;2022-12-18T08:45:35;102469.89;;;1.66;55.54
24996;BME280;13016;52.162;21.034;2022-12-18T08:48:00;102473.40;;;1.89;55.71
24996;BME280;13016;52.162;21.034;2022-12-18T08:50:25;102472.13;;;2.04;55.33
24996;BME280;13016;52.162;21.034;2022-12-18T08:52:50;102473.68;;;2.05;55.39
24996;BME280;13016;52.162;21.034;2022-12-18T08:55:16;102475.33;;;2.15;55.14
24996;BME280;13016;52.162;21.034;2022-12-18T08:57:41;102477.67;;;2.26;55.04
24996;BME280;13016;52.162;21.034;2022-12-18T09:00:07;102481.03;;;2.35;55.19
24996;BME280;13016;52.162;21.034;2022-12-18T09:02:32;102487.10;;;2.30;55.09
24996;BME280;13016;52.162;21.034;2022-12-18T09:04:58;102495.05;;;2.21;55.05
24996;BME280;13016;52.162;21.034;2022-12-18T09:07:23;102490.45;;;2.12;54.88
24996;BME280;13016;52.162;21.034;2022-12-18T09:09:48;102489.84;;;2.24;54.74
24996;BME280;13016;52.162;21.034;2022-12-18T09:12:13;102494.50;;;2.44;54.64
24996;BME280;13016;52.162;21.034;2022-12-18T09:14:39;102492.14;;;2.58;54.15
24996;BME280;13016;52.162;21.034;2022-12-18T09:17:04;102489.05;;;2.65;53.78
24996;BME280;13016;52.162;21.034;2022-12-18T09:19:29;102492.35;;;2.65;53.43
24996;BME280;13016;52.162;21.034;2022-12-18T09:21:55;102493.71;;;2.58;53.21
24996;BME280;13016;52.162;21.034;2022-12-18T09:24:23;102501.27;;;2.40;53.52
24996;BME280;13016;52.162;21.034;2022-12-18T09:26:48;102502.52;;;2.44;53.79
24996;BME280;13016;52.162;21.034;2022-12-18T09:29:15;102508.09;;;2.45;53.73
24996;BME280;13016;52.162;21.034;2022-12-18T09:31:40;102509.86;;;2.49;53.79
24996;BME280;13016;52.162;21.034;2022-12-18T09:34:06;102509.45;;;2.39;53.82
24996;BME280;13016;52.162;21.034;2022-12-18T09:36:31;102510.15;;;2.39;53.85
24996;BME280;13016;52.162;21.034;2022-12-18T09:38:59;102509.20;;;2.55;53.77
24996;BME280;13016;52.162;21.034;2022-12-18T09:47:03;102515.59;;;2.50;53.13
24996;BME280;13016;52.162;21.034;2022-12-18T09:49:35;102519.95;;;2.46;53.40
24996;BME280;13016;52.162;21.034;2022-12-18T09:52:09;102509.58;;;2.61;53.44
24996;BME280;13016;52.162;21.034;2022-12-18T09:54:40;102513.39;;;2.59;52.93
24996;BME280;13016;52.162;21.034;2022-12-18T09:57:12;102523.50;;;2.57;53.08
24996;BME280;13016;52.162;21.034;2022-12-18T09:59:38;102523.71;;;2.64;52.94
24996;BME280;13016;52.162;21.034;2022-12-18T10:02:21;102518.89;;;2.75;53.12
24996;BME280;13016;52.162;21.034;2022-12-18T10:05:00;102511.78;;;2.82;52.66
24996;BME280;13016;52.162;21.034;2022-12-18T10:07:38;102508.66;;;2.84;52.14
24996;BME280;13016;52.162;21.034;2022-12-18T10:10:26;102517.17;;;2.78;52.16
24996;BME280;13016;52.162;21.034;2022-12-18T10:18:24;102537.64;;;2.63;52.47
24996;BME280;13016;52.162;21.034;2022-12-18T10:20:57;102539.09;;;2.72;52.59
24996;BME280;13016;52.162;21.034;2022-12-18T10:26:05;102535.15;;;2.54;52.83
24996;BME280;13016;52.162;21.034;2022-12-18T10:28:33;102536.77;;;2.60;53.14
24996;BME280;13016;52.162;21.034;2022-12-18T10:30:58;102541.27;;;2.58;53.23
24996;BME280;13016;52.162;21.034;2022-12-18T10:33:29;102535.64;;;2.78;53.27
24996;BME280;13016;52.162;21.034;2022-12-18T10:35:54;102532.16;;;2.78;52.82
24996;BME280;13016;52.162;21.034;2022-12-18T10:38:28;102532.23;;;2.63;52.91
24996;BME280;13016;52.162;21.034;2022-12-18T10:44:11;102537.58;;;2.52;53.29
24996;BME280;13016;52.162;21.034;2022-12-18T10:46:37;102529.02;;;2.77;53.59
24996;BME280;13016;52.162;21.034;2022-12-18T10:49:02;102529.79;;;2.91;53.05
24996;BME280;13016;52.162;21.034;2022-12-18T10:51:37;102530.06;;;2.78;52.83
24996;BME280;13016;52.162;21.034;2022-12-18T10:56:39;102530.39;;;2.75;53.02
24996;BME280;13016;52.162;21.034;2022-12-18T10:59:07;102525.71;;;2.80;52.52
24996;BME280;13016;52.162;21.034;2022-12-18T11:04:31;102542.99;;;2.85;52.50
24996;BME280;13016;52.162;21.034;2022-12-18T11:07:04;102544.86;;;2.76;52.20
24996;BME280;13016;52.162;21.034;2022-12-18T11:09:35;102540.52;;;2.78;52.72
24996;BME280;13016;52.162;21.034;2022-12-18T11:12:14;102538.34;;;2.92;52.65
24996;BME280;13016;52.162;21.034;2022-12-18T11:14:42;102536.13;;;3.07;52.62
24996;BME280;13016;52.162;21.034;2022-12-18T11:17:19;102539.14;;;3.21;52.28
24996;BME280;13016;52.162;21.034;2022-12-18T11:19:52;102540.23;;;3.29;52.14
24996;BME280;13016;52.162;21.034;2022-12-18T11:22:36;102535.14;;;3.22;51.89
24996;BME280;13016;52.162;21.034;2022-12-18T11:25:06;102542.00;;;3.41;51.96
24996;BME280;13016;52.162;21.034;2022-12-18T11:27:52;102547.04;;;3.35;51.27
24996;BME280;13016;52.162;21.034;2022-12-18T11:30:28;102546.48;;;3.25;51.79
24996;BME280;13016;52.162;21.034;2022-12-18T11:33:13;102546.47;;;3.22;51.64
24996;BME280;13016;52.162;21.034;2022-12-18T11:35:50;102547.35;;;3.23;51.61
24996;BME280;13016;52.162;21.034;2022-12-18T11:38:25;102551.33;;;3.15;51.55
24996;BME280;13016;52.162;21.034;2022-12-18T11:41:05;102553.46;;;3.24;51.80
24996;BME280;13016;52.162;21.034;2022-12-18T11:43:54;102548.77;;;3.29;51.56
24996;BME280;13016;52.162;21.034;2022-12-18T11:46:34;102544.77;;;3.34;51.57
24996;BME280;13016;52.162;21.034;2022-12-18T11:51:44;102552.66;;;2.98;51.66
24996;BME280;13016;52.162;21.034;2022-12-18T11:54:15;102550.31;;;3.20;52.19
24996;BME280;13016;52.162;21.034;2022-12-18T11:56:58;102554.89;;;3.38;51.63
24996;BME280;13016;52.162;21.034;2022-12-18T12:08:05;102559.14;;;3.52;51.20
24996;BME280;13016;52.162;21.034;2022-12-18T12:11:14;102559.13;;;3.53;51.21
24996;BME280;13016;52.162;21.034;2022-12-18T12:16:47;102559.14;;;3.59;51.09
24996;BME280;13016;52.162;21.034;2022-12-18T12:21:55;102557.58;;;3.59;50.67
24996;BME280;13016;52.162;21.034;2022-12-18T12:32:30;102564.61;;;3.85;51.04
24996;BME280;13016;52.162;21.034;2022-12-18T12:35:52;102571.92;;;3.79;50.30
24996;BME280;13016;52.162;21.034;2022-12-18T12:38:40;102581.19;;;3.86;50.80
24996;BME280;13016;52.162;21.034;2022-12-18T12:41:09;102582.08;;;3.94;50.17
24996;BME280;13016;52.162;21.034;2022-12-18T12:43:44;102587.48;;;3.91;50.12
24996;BME280;13016;52.162;21.034;2022-12-18T12:46:13;102585.19;;;3.74;49.81
24996;BME280;13016;52.162;21.034;2022-12-18T12:48:49;102587.56;;;3.50;50.35
24996;BME280;13016;52.162;21.034;2022-12-18T12:51:25;102596.59;;;3.35;50.72
24996;BME280;13016;52.162;21.034;2022-12-18T12:53:53;102593.85;;;3.45;50.95
24996;BME280;13016;52.162;21.034;2022-12-18T12:56:21;102593.13;;;3.43;50.90
24996;BME280;13016;52.162;21.034;2022-12-18T12:59:10;102595.23;;;3.48;51.16
24996;BME280;13016;52.162;21.034;2022-12-18T13:01:51;102602.53;;;3.36;51.51
24996;BME280;13016;52.162;21.034;2022-12-18T13:04:34;102614.23;;;3.41;51.25
24996;BME280;13016;52.162;21.034;2022-12-18T13:07:15;102620.33;;;3.37;51.29
24996;BME280;13016;52.162;21.034;2022-12-18T13:13:01;102626.30;;;3.48;51.58
24996;BME280;13016;52.162;21.034;2022-12-18T13:20:41;102633.34;;;2.47;52.98
24996;BME280;13016;52.162;21.034;2022-12-18T13:25:47;102641.95;;;2.32;54.09
24996;BME280;13016;52.162;21.034;2022-12-18T13:28:14;102647.46;;;2.25;53.87
24996;BME280;13016;52.162;21.034;2022-12-18T13:33:29;102645.64;;;2.57;53.49
24996;BME280;13016;52.162;21.034;2022-12-18T13:36:13;102637.85;;;2.63;53.45
24996;BME280;13016;52.162;21.034;2022-12-18T13:38:42;102641.57;;;2.70;53.69
24996;BME280;13016;52.162;21.034;2022-12-18T13:43:45;102653.09;;;3.01;52.99
24996;BME280;13016;52.162;21.034;2022-12-18T13:46:31;102653.15;;;3.10;52.79
24996;BME280;13016;52.162;21.034;2022-12-18T13:51:49;102649.98;;;2.79;53.03
24996;BME280;13016;52.162;21.034;2022-12-18T13:56:49;102653.27;;;2.53;53.68
24996;BME280;13016;52.162;21.034;2022-12-18T13:59:16;102653.84;;;2.58;53.70
24996;BME280;13016;52.162;21.034;2022-12-18T14:01:47;102653.33;;;2.39;53.94
24996;BME280;13016;52.162;21.034;2022-12-18T14:06:56;102669.64;;;2.51;53.84
24996;BME280;13016;52.162;21.034;2022-12-18T14:09:26;102668.55;;;2.68;53.79
24996;BME280;13016;52.162;21.034;2022-12-18T14:11:52;102669.61;;;2.69;53.20
24996;BME280;13016;52.162;21.034;2022-12-18T14:14:19;102667.31;;;2.44;53.52
24996;BME280;13016;52.162;21.034;2022-12-18T14:16:46;102665.50;;;2.37;53.60
24996;BME280;13016;52.162;21.034;2022-12-18T14:19:14;102674.79;;;2.42;53.60
24996;BME280;13016;52.162;21.034;2022-12-18T14:21:45;102677.88;;;2.56;53.65
24996;BME280;13016;52.162;21.034;2022-12-18T14:24:19;102682.69;;;2.71;53.52
24996;BME280;13016;52.162;21.034;2022-12-18T14:26:46;102685.04;;;2.59;53.36
24996;BME280;13016;52.162;21.034;2022-12-18T14:31:43;102682.39;;;2.36;53.77
24996;BME280;13016;52.162;21.034;2022-12-18T14:34:17;102677.26;;;2.45;53.65
24996;BME280;13016;52.162;21.034;2022-12-18T14:36:52;102678.55;;;2.35;54.00
24996;BME280;13016;52.162;21.034;2022-12-18T14:39:17;102682.27;;;2.62;53.93